Stations météo

réclame
Mon MeteoGroup
Kielder Castle, Grande-Bretagne (99186): Température de l'air & dewpoint: 15.02.2018 01:00:00 - 21.02.2018 01:00:00 (GMT)Kielder Castle, Grande-Bretagne (99186): Température de l'air -20cm & Température de l'air -100cm: 15.02.2018 01:00:00 - 21.02.2018 01:00:00 (GMT)Kielder Castle, Grande-Bretagne (99186): Quantités de précipitations: 15.02.2018 01:00:00 - 21.02.2018 01:00:00 (GMT)
Date & Time tt [°C] td [°C] tt -20cm [°C] tt -100cm [°C] rr [mm]
21.02.2018 01:00:00 -1,8 -2,2 - - 0,0
21.02.2018 00:00:00 -1,5 -2,0 - - 0,0
20.02.2018 23:00:00 -0,7 -1,3 - - 0,0
20.02.2018 22:00:00 0,1 -0,5 - - 0,0
20.02.2018 21:00:00 0,9 -0,1 - - 0,0
20.02.2018 20:00:00 3,4 1,0 - - 0,0
20.02.2018 19:00:00 5,3 1,4 - - 0,0
20.02.2018 18:00:00 6,0 1,1 - - 0,0
20.02.2018 17:00:00 6,6 1,5 - - 0,0
20.02.2018 16:00:00 7,6 1,1 - - 0,0
20.02.2018 15:00:00 8,6 1,2 - - 0,0
20.02.2018 14:00:00 8,3 1,5 - - 0,0
20.02.2018 13:00:00 8,4 1,6 - - 0,0
20.02.2018 12:00:00 7,6 2,1 - - 0,0
20.02.2018 11:00:00 6,8 1,7 - - 0,0
20.02.2018 10:00:00 5,5 1,9 - - 0,0
20.02.2018 09:00:00 3,9 2,1 3,9 3,5 0,0
20.02.2018 08:00:00 3,2 2,0 - - 0,0
20.02.2018 07:00:00 3,2 2,4 - - 0,0
20.02.2018 06:00:00 2,9 2,3 - - 0,0
20.02.2018 05:00:00 3,1 2,3 - - 0,0
20.02.2018 04:00:00 3,9 2,4 - - 0,0
20.02.2018 03:00:00 6,1 3,7 - - 0,0
20.02.2018 02:00:00 5,9 4,6 - - 0,4
20.02.2018 01:00:00 6,9 6,7 - - 0,0
20.02.2018 00:00:00 6,4 6,2 - - 0,4
19.02.2018 23:00:00 6,5 6,1 - - 0,0
19.02.2018 22:00:00 7,1 6,6 - - 0,0
19.02.2018 21:00:00 7,2 6,9 - - 0,0
19.02.2018 20:00:00 7,4 7,0 - - 0,0
19.02.2018 19:00:00 7,9 7,5 - - 0,0
19.02.2018 18:00:00 8,4 7,7 - - 0,0
19.02.2018 17:00:00 9,3 7,9 - - 0,0
19.02.2018 16:00:00 10,2 8,5 - - 0,0
19.02.2018 15:00:00 10,6 8,9 - - 0,0
19.02.2018 14:00:00 10,7 8,8 - - 0,0
19.02.2018 13:00:00 10,0 8,9 - - 0,0
19.02.2018 12:00:00 9,1 8,6 - - 0,0
19.02.2018 11:00:00 7,7 7,6 - - 0,0
19.02.2018 10:00:00 7,0 6,9 - - 0,0
19.02.2018 09:00:00 6,4 6,3 2,9 3,2 0,2
19.02.2018 08:00:00 5,7 5,5 - - 0,0
19.02.2018 07:00:00 5,5 5,4 - - 0,4
19.02.2018 06:00:00 5,7 5,6 - - 0,4
19.02.2018 05:00:00 5,9 5,8 - - 0,8
19.02.2018 04:00:00 5,8 5,6 - - 0,8
19.02.2018 03:00:00 5,7 5,6 - - 0,6
19.02.2018 02:00:00 5,5 5,4 - - 0,4
19.02.2018 01:00:00 5,3 5,2 - - 0,2
19.02.2018 00:00:00 4,7 4,5 - - 0,4
18.02.2018 23:00:00 4,8 4,6 - - 0,4
18.02.2018 22:00:00 5,0 4,7 - - 0,2
18.02.2018 21:00:00 4,9 4,6 - - 0,4
18.02.2018 20:00:00 4,7 4,3 - - 0,4
18.02.2018 19:00:00 4,7 4,1 - - 0,2
18.02.2018 18:00:00 4,8 4,1 - - 0,2
18.02.2018 17:00:00 5,2 4,2 - - 0,4
18.02.2018 16:00:00 6,0 4,1 - - 0,2
18.02.2018 15:00:00 6,6 4,2 - - 0,0
18.02.2018 14:00:00 6,6 4,9 - - 0,0
18.02.2018 13:00:00 4,9 4,1 - - 0,0
18.02.2018 12:00:00 4,0 3,7 - - 0,0
18.02.2018 11:00:00 2,5 2,3 - - 0,0
18.02.2018 10:00:00 1,7 1,5 - - 0,0
18.02.2018 09:00:00 0,9 0,8 2,2 3,2 0,0
18.02.2018 08:00:00 0,6 0,4 - - 0,0
18.02.2018 07:00:00 0,7 0,5 - - 0,0
18.02.2018 06:00:00 0,8 0,6 - - 0,0
18.02.2018 05:00:00 1,1 0,9 - - 0,0
18.02.2018 04:00:00 1,2 1,0 - - 0,0
18.02.2018 03:00:00 1,4 1,2 - - 0,0
18.02.2018 02:00:00 1,8 1,7 - - 0,0
18.02.2018 01:00:00 1,6 1,4 - - 0,0
18.02.2018 00:00:00 2,1 1,9 - - 0,0
17.02.2018 23:00:00 2,2 1,9 - - 0,0
17.02.2018 22:00:00 1,7 1,5 - - 0,0
17.02.2018 21:00:00 1,6 1,1 - - 0,0
17.02.2018 20:00:00 2,9 2,2 - - 0,0
17.02.2018 19:00:00 3,0 2,4 - - 0,0
17.02.2018 18:00:00 3,4 2,3 - - 0,0
17.02.2018 17:00:00 3,7 2,3 - - 0,0
17.02.2018 16:00:00 4,5 2,2 - - 0,0
17.02.2018 15:00:00 5,1 2,5 - - 0,0
17.02.2018 14:00:00 5,7 3,3 - - 0,0
17.02.2018 13:00:00 4,0 3,2 - - 1,0
17.02.2018 12:00:00 5,0 3,0 - - 0,0
17.02.2018 11:00:00 5,4 3,9 - - 0,0
17.02.2018 10:00:00 3,0 2,3 - - 0,0
17.02.2018 09:00:00 2,6 2,0 1,7 3,2 0,0
17.02.2018 08:00:00 2,4 1,8 - - 0,2
17.02.2018 07:00:00 2,1 1,4 - - 0,2
17.02.2018 06:00:00 1,9 1,2 - - 0,8
17.02.2018 05:00:00 1,9 0,9 - - 1,0
17.02.2018 04:00:00 2,5 1,4 - - 0,2
17.02.2018 03:00:00 2,6 1,5 - - 0,4
17.02.2018 02:00:00 2,6 1,5 - - 1,2
17.02.2018 01:00:00 2,8 1,5 - - 0,8
17.02.2018 00:00:00 3,3 1,4 - - 0,2
16.02.2018 23:00:00 3,9 1,3 - - 0,0
16.02.2018 22:00:00 3,3 1,3 - - 0,0
16.02.2018 21:00:00 3,4 1,3 - - 0,0
16.02.2018 20:00:00 3,5 0,9 - - 0,0
16.02.2018 19:00:00 4,4 1,5 - - 0,0
16.02.2018 18:00:00 5,1 2,2 - - 0,0
16.02.2018 17:00:00 5,5 2,7 - - 0,0
16.02.2018 16:00:00 5,7 2,7 - - 0,0
16.02.2018 15:00:00 6,2 2,3 - - 0,0
16.02.2018 14:00:00 5,1 2,6 - - 0,0
16.02.2018 13:00:00 4,9 1,8 - - 0,0
16.02.2018 12:00:00 4,3 1,7 - - 0,0
16.02.2018 11:00:00 3,3 1,5 - - 0,0
16.02.2018 10:00:00 3,0 1,1 - - 0,0
16.02.2018 09:00:00 2,1 0,6 1,7 3,4 0,0
16.02.2018 08:00:00 1,6 -0,3 - - 0,0
16.02.2018 07:00:00 1,2 -0,6 - - 0,0
16.02.2018 06:00:00 1,2 -0,7 - - 0,0
16.02.2018 05:00:00 1,0 -0,8 - - 0,0
16.02.2018 04:00:00 0,8 -1,1 - - 0,0
16.02.2018 03:00:00 0,8 -1,2 - - 0,0
16.02.2018 02:00:00 1,1 -1,2 - - 0,0
16.02.2018 01:00:00 0,9 -1,3 - - 0,0
16.02.2018 00:00:00 1,2 -1,3 - - 0,0
15.02.2018 23:00:00 1,2 -1,3 - - 0,0
15.02.2018 22:00:00 1,6 -1,5 - - 0,0
15.02.2018 21:00:00 1,7 -1,3 - - 0,0
15.02.2018 20:00:00 1,9 -1,6 - - 0,0
15.02.2018 19:00:00 2,0 -0,8 - - 0,2
15.02.2018 18:00:00 2,5 0,1 - - 0,0
15.02.2018 17:00:00 2,7 0,0 - - 0,0
15.02.2018 16:00:00 2,8 -0,2 - - 0,0
15.02.2018 15:00:00 3,0 0,0 - - 0,0
15.02.2018 14:00:00 3,0 -0,6 - - 0,0
15.02.2018 13:00:00 3,4 -0,1 - - 0,0
15.02.2018 12:00:00 3,0 0,2 - - 0,0
15.02.2018 11:00:00 2,8 0,1 - - 0,0
15.02.2018 10:00:00 2,3 0,3 - - 0,0
15.02.2018 09:00:00 1,5 -0,5 1,7 3,4 0,0
15.02.2018 08:00:00 2,1 0,1 - - 0,0
15.02.2018 07:00:00 2,5 1,2 - - 0,0
15.02.2018 06:00:00 2,5 1,4 - - 0,0
15.02.2018 05:00:00 3,3 2,1 - - 0,0
15.02.2018 04:00:00 2,9 2,5 - - 0,2
15.02.2018 03:00:00 2,0 1,6 - - 0,8
15.02.2018 02:00:00 1,8 1,0 - - 2,2
15.02.2018 01:00:00 2,7 2,3 - - 0,0

tt = Température de l'air
td = dewpoint
tt -20cm = Température de l'air -20cm
tt -100cm = Température de l'air -100cm
rr = Quantités de précipitations

stations d'obs. à proximité